sensor_id;sensor_type;location;lat;lon;timestamp;temperature;humidity
41547;DHT22;27271;45.412;10.852;2023-11-19T05:02:04;2.20;99.90
41547;DHT22;27271;45.412;10.852;2023-11-19T05:05:26;2.10;99.90
41547;DHT22;27271;45.412;10.852;2023-11-19T05:08:48;2.00;99.90
41547;DHT22;27271;45.412;10.852;2023-11-19T05:12:10;2.00;99.90
41547;DHT22;27271;45.412;10.852;2023-11-19T05:15:34;1.90;99.90
41547;DHT22;27271;45.412;10.852;2023-11-19T05:18:56;1.90;99.90
41547;DHT22;27271;45.412;10.852;2023-11-19T05:22:18;1.90;99.90
41547;DHT22;27271;45.412;10.852;2023-11-19T05:25:42;1.80;99.90
41547;DHT22;27271;45.412;10.852;2023-11-19T05:29:04;1.80;99.90
41547;DHT22;27271;45.412;10.852;2023-11-19T05:32:26;1.70;99.90
41547;DHT22;27271;45.412;10.852;2023-11-19T05:35:48;1.70;99.90
41547;DHT22;27271;45.412;10.852;2023-11-19T05:39:10;1.60;99.90
41547;DHT22;27271;45.412;10.852;2023-11-19T05:42:33;1.60;99.90
41547;DHT22;27271;45.412;10.852;2023-11-19T05:45:55;1.60;99.90
41547;DHT22;27271;45.412;10.852;2023-11-19T05:49:17;1.50;99.90
41547;DHT22;27271;45.412;10.852;2023-11-19T05:52:39;1.50;99.90
41547;DHT22;27271;45.412;10.852;2023-11-19T05:56:01;1.50;99.90
41547;DHT22;27271;45.412;10.852;2023-11-19T05:59:25;1.40;99.90
41547;DHT22;27271;45.412;10.852;2023-11-19T06:02:47;1.30;99.90
41547;DHT22;27271;45.412;10.852;2023-11-19T06:06:09;1.30;99.90
41547;DHT22;27271;45.412;10.852;2023-11-19T06:09:31;1.20;99.90
41547;DHT22;27271;45.412;10.852;2023-11-19T06:12:55;1.30;99.90
41547;DHT22;27271;45.412;10.852;2023-11-19T06:16:19;1.30;99.90
41547;DHT22;27271;45.412;10.852;2023-11-19T06:19:41;1.30;99.90
41547;DHT22;27271;45.412;10.852;2023-11-19T06:23:03;1.20;99.90
41547;DHT22;27271;45.412;10.852;2023-11-19T06:26:25;1.30;99.90
41547;DHT22;27271;45.412;10.852;2023-11-19T06:29:48;1.40;99.90
41547;DHT22;27271;45.412;10.852;2023-11-19T06:33:12;1.40;99.90
41547;DHT22;27271;45.412;10.852;2023-11-19T06:36:34;1.40;99.90
41547;DHT22;27271;45.412;10.852;2023-11-19T06:39:57;1.40;99.90
41547;DHT22;27271;45.412;10.852;2023-11-19T06:43:19;1.40;99.90
41547;DHT22;27271;45.412;10.852;2023-11-19T06:46:41;1.50;99.90
41547;DHT22;27271;45.412;10.852;2023-11-19T06:50:03;1.50;99.90
41547;DHT22;27271;45.412;10.852;2023-11-19T06:53:27;1.50;99.90
41547;DHT22;27271;45.412;10.852;2023-11-19T06:56:49;1.70;99.90
41547;DHT22;27271;45.412;10.852;2023-11-19T07:00:11;1.80;99.90
41547;DHT22;27271;45.412;10.852;2023-11-19T07:03:34;1.90;99.90
41547;DHT22;27271;45.412;10.852;2023-11-19T07:06:57;2.20;99.90
41547;DHT22;27271;45.412;10.852;2023-11-19T07:10:19;2.30;99.90
41547;DHT22;27271;45.412;10.852;2023-11-19T07:13:41;2.50;99.90
41547;DHT22;27271;45.412;10.852;2023-11-19T07:17:03;2.80;99.90
41547;DHT22;27271;45.412;10.852;2023-11-19T07:20:25;3.00;99.90
41547;DHT22;27271;45.412;10.852;2023-11-19T07:23:48;3.20;99.90
41547;DHT22;27271;45.412;10.852;2023-11-19T07:27:11;3.50;88.00
41547;DHT22;27271;45.412;10.852;2023-11-19T07:30:35;3.80;37.30
41547;DHT22;27271;45.412;10.852;2023-11-19T07:33:57;4.70;1.00
41547;DHT22;27271;45.412;10.852;2023-11-19T07:37:19;6.20;1.00
41547;DHT22;27271;45.412;10.852;2023-11-19T07:40:41;8.10;1.00
41547;DHT22;27271;45.412;10.852;2023-11-19T07:44:17;9.70;99.90
41547;DHT22;27271;45.412;10.852;2023-11-19T07:47:39;11.20;99.90
41547;DHT22;27271;45.412;10.852;2023-11-19T07:51:02;12.20;99.90
41547;DHT22;27271;45.412;10.852;2023-11-19T07:54:24;13.00;99.90
41547;DHT22;27271;45.412;10.852;2023-11-19T07:57:46;13.70;99.90
41547;DHT22;27271;45.412;10.852;2023-11-19T08:01:08;13.80;99.90
41547;DHT22;27271;45.412;10.852;2023-11-19T08:04:31;14.10;99.90
41547;DHT22;27271;45.412;10.852;2023-11-19T08:07:53;14.60;99.90
41547;DHT22;27271;45.412;10.852;2023-11-19T08:11:15;15.10;99.90
41547;DHT22;27271;45.412;10.852;2023-11-19T08:14:37;15.40;99.90
41547;DHT22;27271;45.412;10.852;2023-11-19T08:17:59;15.90;99.90
41547;DHT22;27271;45.412;10.852;2023-11-19T08:21:21;16.40;99.90
41547;DHT22;27271;45.412;10.852;2023-11-19T08:24:44;16.60;99.90
41547;DHT22;27271;45.412;10.852;2023-11-19T08:28:06;15.70;99.90
41547;DHT22;27271;45.412;10.852;2023-11-19T08:31:28;15.70;99.90
41547;DHT22;27271;45.412;10.852;2023-11-19T08:34:50;15.90;99.90
41547;DHT22;27271;45.412;10.852;2023-11-19T08:38:12;15.70;99.90
41547;DHT22;27271;45.412;10.852;2023-11-19T08:41:37;16.10;99.90
41547;DHT22;27271;45.412;10.852;2023-11-19T08:45:01;16.30;99.90
41547;DHT22;27271;45.412;10.852;2023-11-19T08:48:23;16.80;99.90
41547;DHT22;27271;45.412;10.852;2023-11-19T08:51:45;16.40;99.90
41547;DHT22;27271;45.412;10.852;2023-11-19T08:55:07;16.50;99.90
41547;DHT22;27271;45.412;10.852;2023-11-19T08:58:31;17.10;99.90
41547;DHT22;27271;45.412;10.852;2023-11-19T09:01:54;17.20;99.90
41547;DHT22;27271;45.412;10.852;2023-11-19T09:05:15;17.10;99.90
41547;DHT22;27271;45.412;10.852;2023-11-19T09:08:38;17.80;99.90
41547;DHT22;27271;45.412;10.852;2023-11-19T09:12:00;17.50;99.90
41547;DHT22;27271;45.412;10.852;2023-11-19T09:19:48;17.00;99.90
41547;DHT22;27271;45.412;10.852;2023-11-19T09:23:10;17.60;99.90
41547;DHT22;27271;45.412;10.852;2023-11-19T09:26:32;17.20;99.90
41547;DHT22;27271;45.412;10.852;2023-11-19T09:29:54;17.20;99.90
41547;DHT22;27271;45.412;10.852;2023-11-19T09:33:19;17.50;99.90
41547;DHT22;27271;45.412;10.852;2023-11-19T09:36:41;17.50;99.90
41547;DHT22;27271;45.412;10.852;2023-11-19T09:40:06;16.90;99.90
41547;DHT22;27271;45.412;10.852;2023-11-19T09:43:31;16.60;99.90
41547;DHT22;27271;45.412;10.852;2023-11-19T09:46:53;16.00;99.90
41547;DHT22;27271;45.412;10.852;2023-11-19T09:50:18;16.00;99.90
41547;DHT22;27271;45.412;10.852;2023-11-19T09:53:41;15.80;99.90
41547;DHT22;27271;45.412;10.852;2023-11-19T09:57:03;16.10;99.90
41547;DHT22;27271;45.412;10.852;2023-11-19T10:00:26;16.30;99.90
41547;DHT22;27271;45.412;10.852;2023-11-19T10:03:48;16.00;99.90
41547;DHT22;27271;45.412;10.852;2023-11-19T10:07:11;16.00;99.90
41547;DHT22;27271;45.412;10.852;2023-11-19T10:10:34;16.50;99.90
41547;DHT22;27271;45.412;10.852;2023-11-19T10:13:57;16.70;99.90
41547;DHT22;27271;45.412;10.852;2023-11-19T10:17:20;16.60;99.90
41547;DHT22;27271;45.412;10.852;2023-11-19T10:20:42;16.20;99.90
41547;DHT22;27271;45.412;10.852;2023-11-19T10:24:05;15.70;99.90
41547;DHT22;27271;45.412;10.852;2023-11-19T10:27:30;15.70;99.90
41547;DHT22;27271;45.412;10.852;2023-11-19T10:30:52;16.00;99.90
41547;DHT22;27271;45.412;10.852;2023-11-19T10:34:24;16.30;99.90
41547;DHT22;27271;45.412;10.852;2023-11-19T10:37:46;16.40;99.90
41547;DHT22;27271;45.412;10.852;2023-11-19T10:41:08;16.70;99.90
41547;DHT22;27271;45.412;10.852;2023-11-19T10:44:33;16.30;99.90
41547;DHT22;27271;45.412;10.852;2023-11-19T10:47:58;16.10;99.90
41547;DHT22;27271;45.412;10.852;2023-11-19T10:51:21;16.00;99.90
41547;DHT22;27271;45.412;10.852;2023-11-19T10:54:44;15.60;99.90
41547;DHT22;27271;45.412;10.852;2023-11-19T10:58:10;15.40;99.90
41547;DHT22;27271;45.412;10.852;2023-11-19T11:01:39;15.50;99.90
41547;DHT22;27271;45.412;10.852;2023-11-19T11:05:02;15.10;99.90
41547;DHT22;27271;45.412;10.852;2023-11-19T11:08:26;14.70;99.90
41547;DHT22;27271;45.412;10.852;2023-11-19T11:16:12;14.30;99.90
41547;DHT22;27271;45.412;10.852;2023-11-19T11:19:34;14.30;99.90
41547;DHT22;27271;45.412;10.852;2023-11-19T11:36:53;13.90;99.90
41547;DHT22;27271;45.412;10.852;2023-11-19T11:40:17;14.00;99.90
41547;DHT22;27271;45.412;10.852;2023-11-19T11:43:46;13.80;99.90
41547;DHT22;27271;45.412;10.852;2023-11-19T11:47:08;13.90;99.90
41547;DHT22;27271;45.412;10.852;2023-11-19T11:50:30;13.80;99.90
41547;DHT22;27271;45.412;10.852;2023-11-19T11:53:53;13.60;99.90
41547;DHT22;27271;45.412;10.852;2023-11-19T11:57:16;13.80;99.90
41547;DHT22;27271;45.412;10.852;2023-11-19T12:00:40;13.90;99.90
41547;DHT22;27271;45.412;10.852;2023-11-19T12:04:04;13.70;99.90
41547;DHT22;27271;45.412;10.852;2023-11-19T12:07:26;13.50;99.90
41547;DHT22;27271;45.412;10.852;2023-11-19T12:10:52;13.10;99.90
41547;DHT22;27271;45.412;10.852;2023-11-19T12:14:14;12.90;99.90
41547;DHT22;27271;45.412;10.852;2023-11-19T12:17:37;12.80;99.90
41547;DHT22;27271;45.412;10.852;2023-11-19T12:21:01;12.90;99.90
41547;DHT22;27271;45.412;10.852;2023-11-19T12:24:23;12.90;99.90
41547;DHT22;27271;45.412;10.852;2023-11-19T12:27:54;13.00;99.90
41547;DHT22;27271;45.412;10.852;2023-11-19T12:31:16;13.10;99.90
41547;DHT22;27271;45.412;10.852;2023-11-19T12:34:38;13.10;99.90
41547;DHT22;27271;45.412;10.852;2023-11-19T12:38:00;13.10;99.90
41547;DHT22;27271;45.412;10.852;2023-11-19T12:41:22;13.00;99.90
41547;DHT22;27271;45.412;10.852;2023-11-19T12:44:54;12.90;99.90
41547;DHT22;27271;45.412;10.852;2023-11-19T12:48:17;12.90;99.90
41547;DHT22;27271;45.412;10.852;2023-11-19T12:51:39;12.90;99.90
41547;DHT22;27271;45.412;10.852;2023-11-19T12:55:02;12.80;99.90
41547;DHT22;27271;45.412;10.852;2023-11-19T12:58:28;12.90;99.90
41547;DHT22;27271;45.412;10.852;2023-11-19T13:01:59;12.80;99.90
41547;DHT22;27271;45.412;10.852;2023-11-19T13:05:28;12.90;99.90
41547;DHT22;27271;45.412;10.852;2023-11-19T13:08:52;12.90;99.90
41547;DHT22;27271;45.412;10.852;2023-11-19T13:12:16;12.90;99.90
41547;DHT22;27271;45.412;10.852;2023-11-19T13:15:38;12.80;99.90
41547;DHT22;27271;45.412;10.852;2023-11-19T13:19:01;12.70;99.90
41547;DHT22;27271;45.412;10.852;2023-11-19T13:22:24;12.70;99.90
41547;DHT22;27271;45.412;10.852;2023-11-19T13:25:46;12.60;99.90
41547;DHT22;27271;45.412;10.852;2023-11-19T13:29:08;12.60;99.90
41547;DHT22;27271;45.412;10.852;2023-11-19T13:32:32;12.60;99.90
41547;DHT22;27271;45.412;10.852;2023-11-19T13:35:54;12.60;99.90
41547;DHT22;27271;45.412;10.852;2023-11-19T13:39:15;12.50;99.90
41547;DHT22;27271;45.412;10.852;2023-11-19T13:42:45;12.50;99.90
41547;DHT22;27271;45.412;10.852;2023-11-19T13:46:07;12.50;99.90
41547;DHT22;27271;45.412;10.852;2023-11-19T13:49:32;12.60;99.90
41547;DHT22;27271;45.412;10.852;2023-11-19T13:52:55;12.60;99.90
41547;DHT22;27271;45.412;10.852;2023-11-19T13:56:17;12.60;99.90
41547;DHT22;27271;45.412;10.852;2023-11-19T13:59:39;12.60;99.90
41547;DHT22;27271;45.412;10.852;2023-11-19T14:03:01;12.70;99.90
41547;DHT22;27271;45.412;10.852;2023-11-19T14:06:24;12.70;99.90
41547;DHT22;27271;45.412;10.852;2023-11-19T14:09:46;12.60;99.90
41547;DHT22;27271;45.412;10.852;2023-11-19T14:13:08;12.50;99.90
41547;DHT22;27271;45.412;10.852;2023-11-19T14:16:33;12.50;99.90
41547;DHT22;27271;45.412;10.852;2023-11-19T14:19:56;12.40;99.90
41547;DHT22;27271;45.412;10.852;2023-11-19T14:23:18;12.30;99.90
41547;DHT22;27271;45.412;10.852;2023-11-19T14:26:40;12.20;99.90
41547;DHT22;27271;45.412;10.852;2023-11-19T14:30:03;12.10;99.90
41547;DHT22;27271;45.412;10.852;2023-11-19T14:33:25;11.90;99.90
41547;DHT22;27271;45.412;10.852;2023-11-19T14:36:46;11.90;99.90
41547;DHT22;27271;45.412;10.852;2023-11-19T14:40:09;11.90;99.90
41547;DHT22;27271;45.412;10.852;2023-11-19T14:43:33;11.80;99.90
41547;DHT22;27271;45.412;10.852;2023-11-19T14:46:55;11.80;99.90
41547;DHT22;27271;45.412;10.852;2023-11-19T14:50:17;11.80;99.90
41547;DHT22;27271;45.412;10.852;2023-11-19T14:53:39;11.70;99.90
41547;DHT22;27271;45.412;10.852;2023-11-19T14:57:01;11.70;99.90
41547;DHT22;27271;45.412;10.852;2023-11-19T15:00:24;11.60;99.90
41547;DHT22;27271;45.412;10.852;2023-11-19T15:03:47;11.50;99.90
41547;DHT22;27271;45.412;10.852;2023-11-19T15:07:12;11.30;99.90
41547;DHT22;27271;45.412;10.852;2023-11-19T15:10:34;11.20;99.90
41547;DHT22;27271;45.412;10.852;2023-11-19T15:13:56;11.10;99.90
41547;DHT22;27271;45.412;10.852;2023-11-19T15:17:18;11.00;99.90
41547;DHT22;27271;45.412;10.852;2023-11-19T15:20:41;10.80;99.90
41547;DHT22;27271;45.412;10.852;2023-11-19T15:24:03;10.70;99.90
41547;DHT22;27271;45.412;10.852;2023-11-19T15:27:28;10.50;99.90
41547;DHT22;27271;45.412;10.852;2023-11-19T15:30:50;10.40;99.90
41547;DHT22;27271;45.412;10.852;2023-11-19T15:34:12;10.20;99.90
41547;DHT22;27271;45.412;10.852;2023-11-19T15:37:35;10.20;99.90
41547;DHT22;27271;45.412;10.852;2023-11-19T15:40:57;10.10;99.90
41547;DHT22;27271;45.412;10.852;2023-11-19T15:44:19;9.90;99.90
41547;DHT22;27271;45.412;10.852;2023-11-19T15:47:41;9.80;99.90
41547;DHT22;27271;45.412;10.852;2023-11-19T15:51:03;9.70;99.90
41547;DHT22;27271;45.412;10.852;2023-11-19T15:54:25;9.60;99.90
41547;DHT22;27271;45.412;10.852;2023-11-19T15:57:47;9.50;99.90
41547;DHT22;27271;45.412;10.852;2023-11-19T16:01:09;9.30;99.90
41547;DHT22;27271;45.412;10.852;2023-11-19T16:04:31;9.10;99.90
41547;DHT22;27271;45.412;10.852;2023-11-19T16:07:53;8.90;99.90
41547;DHT22;27271;45.412;10.852;2023-11-19T16:11:15;8.70;1.00
41547;DHT22;27271;45.412;10.852;2023-11-19T16:14:39;8.60;1.00
41547;DHT22;27271;45.412;10.852;2023-11-19T16:18:01;8.50;1.00
41547;DHT22;27271;45.412;10.852;2023-11-19T16:21:23;8.30;1.00
41547;DHT22;27271;45.412;10.852;2023-11-19T16:24:46;8.20;1.00
41547;DHT22;27271;45.412;10.852;2023-11-19T16:28:10;8.10;1.00
41547;DHT22;27271;45.412;10.852;2023-11-19T16:31:32;8.00;1.00
41547;DHT22;27271;45.412;10.852;2023-11-19T16:34:54;8.00;1.00
41547;DHT22;27271;45.412;10.852;2023-11-19T16:38:17;7.90;1.00
41547;DHT22;27271;45.412;10.852;2023-11-19T16:41:39;7.80;1.00
41547;DHT22;27271;45.412;10.852;2023-11-19T16:45:05;7.60;1.00
41547;DHT22;27271;45.412;10.852;2023-11-19T16:48:27;7.50;1.00
41547;DHT22;27271;45.412;10.852;2023-11-19T16:51:50;7.50;1.00
41547;DHT22;27271;45.412;10.852;2023-11-19T16:55:12;7.40;1.00
41547;DHT22;27271;45.412;10.852;2023-11-19T16:58:34;7.30;1.00
41547;DHT22;27271;45.412;10.852;2023-11-19T17:01:56;7.20;1.00
41547;DHT22;27271;45.412;10.852;2023-11-19T17:05:17;7.10;1.00
41547;DHT22;27271;45.412;10.852;2023-11-19T17:08:39;7.10;12.40
41547;DHT22;27271;45.412;10.852;2023-11-19T17:12:01;7.10;10.30
41547;DHT22;27271;45.412;10.852;2023-11-19T17:15:23;7.00;8.10
41547;DHT22;27271;45.412;10.852;2023-11-19T17:18:46;6.90;12.00
41547;DHT22;27271;45.412;10.852;2023-11-19T17:22:08;7.00;17.10
41547;DHT22;27271;45.412;10.852;2023-11-19T17:25:30;6.90;12.50
41547;DHT22;27271;45.412;10.852;2023-11-19T17:28:52;6.80;16.20
41547;DHT22;27271;45.412;10.852;2023-11-19T17:32:14;6.70;31.10
41547;DHT22;27271;45.412;10.852;2023-11-19T17:35:36;6.70;35.70
41547;DHT22;27271;45.412;10.852;2023-11-19T17:38:58;6.60;44.80
41547;DHT22;27271;45.412;10.852;2023-11-19T17:42:21;6.60;66.00
41547;DHT22;27271;45.412;10.852;2023-11-19T17:45:44;6.50;61.40
41547;DHT22;27271;45.412;10.852;2023-11-19T17:49:06;6.50;80.00
41547;DHT22;27271;45.412;10.852;2023-11-19T17:52:29;6.40;90.80
41547;DHT22;27271;45.412;10.852;2023-11-19T17:55:51;6.40;91.80
41547;DHT22;27271;45.412;10.852;2023-11-19T17:59:13;6.30;98.90
41547;DHT22;27271;45.412;10.852;2023-11-19T18:02:38;6.30;99.90
41547;DHT22;27271;45.412;10.852;2023-11-19T18:06:04;6.30;99.90
41547;DHT22;27271;45.412;10.852;2023-11-19T18:09:27;6.30;99.90
41547;DHT22;27271;45.412;10.852;2023-11-19T18:12:48;6.30;99.90
41547;DHT22;27271;45.412;10.852;2023-11-19T18:16:10;6.30;99.90
41547;DHT22;27271;45.412;10.852;2023-11-19T18:19:35;6.30;99.90
41547;DHT22;27271;45.412;10.852;2023-11-19T18:22:57;6.30;99.90
41547;DHT22;27271;45.412;10.852;2023-11-19T18:26:20;6.30;99.90
41547;DHT22;27271;45.412;10.852;2023-11-19T18:29:42;6.20;99.90
41547;DHT22;27271;45.412;10.852;2023-11-19T18:33:06;6.20;99.90
41547;DHT22;27271;45.412;10.852;2023-11-19T18:36:33;6.10;99.90
41547;DHT22;27271;45.412;10.852;2023-11-19T18:39:54;6.10;99.90
41547;DHT22;27271;45.412;10.852;2023-11-19T18:43:17;6.10;99.90
41547;DHT22;27271;45.412;10.852;2023-11-19T18:46:39;6.10;99.90
41547;DHT22;27271;45.412;10.852;2023-11-19T18:50:01;6.00;99.90
41547;DHT22;27271;45.412;10.852;2023-11-19T18:53:23;6.00;99.90
41547;DHT22;27271;45.412;10.852;2023-11-19T18:56:45;6.00;99.90
41547;DHT22;27271;45.412;10.852;2023-11-19T19:00:07;6.00;99.90
41547;DHT22;27271;45.412;10.852;2023-11-19T19:03:32;5.90;99.90
41547;DHT22;27271;45.412;10.852;2023-11-19T19:06:55;5.90;99.90
41547;DHT22;27271;45.412;10.852;2023-11-19T19:10:17;5.90;99.90
41547;DHT22;27271;45.412;10.852;2023-11-19T19:13:38;5.90;99.90
41547;DHT22;27271;45.412;10.852;2023-11-19T19:17:00;5.90;99.90
41547;DHT22;27271;45.412;10.852;2023-11-19T19:20:22;5.90;99.90
41547;DHT22;27271;45.412;10.852;2023-11-19T19:23:45;5.80;99.90
41547;DHT22;27271;45.412;10.852;2023-11-19T19:27:07;5.80;99.90
41547;DHT22;27271;45.412;10.852;2023-11-19T19:30:29;5.70;99.90
41547;DHT22;27271;45.412;10.852;2023-11-19T19:33:51;5.70;99.90
41547;DHT22;27271;45.412;10.852;2023-11-19T19:37:19;5.70;99.90
41547;DHT22;27271;45.412;10.852;2023-11-19T19:40:41;5.70;99.90
41547;DHT22;27271;45.412;10.852;2023-11-19T19:44:03;5.60;99.90
41547;DHT22;27271;45.412;10.852;2023-11-19T19:47:25;5.60;99.90
41547;DHT22;27271;45.412;10.852;2023-11-19T19:50:47;5.50;99.90
41547;DHT22;27271;45.412;10.852;2023-11-19T19:54:09;5.60;99.90
41547;DHT22;27271;45.412;10.852;2023-11-19T19:57:32;5.50;99.90
41547;DHT22;27271;45.412;10.852;2023-11-19T20:00:57;5.50;98.50
41547;DHT22;27271;45.412;10.852;2023-11-19T20:04:21;5.50;94.40
41547;DHT22;27271;45.412;10.852;2023-11-19T20:07:43;5.40;93.70
41547;DHT22;27271;45.412;10.852;2023-11-19T20:11:06;5.40;91.60
41547;DHT22;27271;45.412;10.852;2023-11-19T20:14:31;5.40;94.60
41547;DHT22;27271;45.412;10.852;2023-11-19T20:17:53;5.40;91.70
41547;DHT22;27271;45.412;10.852;2023-11-19T20:21:16;5.40;95.10
41547;DHT22;27271;45.412;10.852;2023-11-19T20:24:37;5.30;96.30
41547;DHT22;27271;45.412;10.852;2023-11-19T20:28:00;5.30;96.10
41547;DHT22;27271;45.412;10.852;2023-11-19T20:31:22;5.20;99.90
41547;DHT22;27271;45.412;10.852;2023-11-19T20:34:44;5.20;99.90
41547;DHT22;27271;45.412;10.852;2023-11-19T20:38:06;5.20;99.90
41547;DHT22;27271;45.412;10.852;2023-11-19T20:41:28;5.10;99.90
41547;DHT22;27271;45.412;10.852;2023-11-19T20:44:50;5.20;99.90
41547;DHT22;27271;45.412;10.852;2023-11-19T20:48:14;5.20;99.90
41547;DHT22;27271;45.412;10.852;2023-11-19T20:51:36;5.20;99.90
41547;DHT22;27271;45.412;10.852;2023-11-19T20:55:01;5.20;99.90
41547;DHT22;27271;45.412;10.852;2023-11-19T20:58:25;5.20;99.90
41547;DHT22;27271;45.412;10.852;2023-11-19T21:01:47;5.20;99.90
41547;DHT22;27271;45.412;10.852;2023-11-19T21:05:16;5.10;99.90
41547;DHT22;27271;45.412;10.852;2023-11-19T21:08:41;5.00;99.90
41547;DHT22;27271;45.412;10.852;2023-11-19T21:12:03;5.00;99.90
41547;DHT22;27271;45.412;10.852;2023-11-19T21:15:25;4.90;99.90
41547;DHT22;27271;45.412;10.852;2023-11-19T21:18:49;4.90;99.90
41547;DHT22;27271;45.412;10.852;2023-11-19T21:22:11;4.80;99.90
41547;DHT22;27271;45.412;10.852;2023-11-19T21:25:33;4.90;99.90
41547;DHT22;27271;45.412;10.852;2023-11-19T21:28:55;4.80;99.90
41547;DHT22;27271;45.412;10.852;2023-11-19T21:32:17;4.80;99.90
41547;DHT22;27271;45.412;10.852;2023-11-19T21:35:40;4.70;99.90
41547;DHT22;27271;45.412;10.852;2023-11-19T21:39:03;4.70;99.90
41547;DHT22;27271;45.412;10.852;2023-11-19T21:42:27;4.70;99.90
41547;DHT22;27271;45.412;10.852;2023-11-19T21:45:49;4.70;99.90
41547;DHT22;27271;45.412;10.852;2023-11-19T21:49:11;4.80;99.90
41547;DHT22;27271;45.412;10.852;2023-11-19T21:52:33;4.80;99.90
41547;DHT22;27271;45.412;10.852;2023-11-19T21:55:58;4.90;99.90
41547;DHT22;27271;45.412;10.852;2023-11-19T21:59:23;4.90;99.90
41547;DHT22;27271;45.412;10.852;2023-11-19T22:02:45;5.00;99.90
41547;DHT22;27271;45.412;10.852;2023-11-19T22:06:07;5.10;99.90
41547;DHT22;27271;45.412;10.852;2023-11-19T22:09:29;5.10;99.90
41547;DHT22;27271;45.412;10.852;2023-11-19T22:12:52;5.20;99.90
41547;DHT22;27271;45.412;10.852;2023-11-19T22:16:13;5.30;99.90
41547;DHT22;27271;45.412;10.852;2023-11-19T22:19:36;5.50;99.90
41547;DHT22;27271;45.412;10.852;2023-11-19T22:22:57;5.70;99.90
41547;DHT22;27271;45.412;10.852;2023-11-19T22:26:20;5.80;99.90
41547;DHT22;27271;45.412;10.852;2023-11-19T22:29:43;6.00;88.70
41547;DHT22;27271;45.412;10.852;2023-11-19T22:33:05;6.10;64.40
41547;DHT22;27271;45.412;10.852;2023-11-19T22:36:29;6.20;37.40
41547;DHT22;27271;45.412;10.852;2023-11-19T22:39:51;6.30;40.40
41547;DHT22;27271;45.412;10.852;2023-11-19T22:43:14;6.30;27.70
41547;DHT22;27271;45.412;10.852;2023-11-19T22:46:36;6.40;23.60
41547;DHT22;27271;45.412;10.852;2023-11-19T22:49:58;6.50;16.30
41547;DHT22;27271;45.412;10.852;2023-11-19T22:53:20;6.50;18.50
41547;DHT22;27271;45.412;10.852;2023-11-19T22:56:42;6.60;4.30
41547;DHT22;27271;45.412;10.852;2023-11-19T23:00:04;6.70;1.00
41547;DHT22;27271;45.412;10.852;2023-11-19T23:03:38;6.70;1.00
41547;DHT22;27271;45.412;10.852;2023-11-19T23:07:00;6.70;1.00
41547;DHT22;27271;45.412;10.852;2023-11-19T23:10:23;6.70;1.00
41547;DHT22;27271;45.412;10.852;2023-11-19T23:13:45;6.70;1.00
41547;DHT22;27271;45.412;10.852;2023-11-19T23:17:07;6.60;1.00
41547;DHT22;27271;45.412;10.852;2023-11-19T23:20:29;6.50;1.00
41547;DHT22;27271;45.412;10.852;2023-11-19T23:23:51;6.30;1.00
41547;DHT22;27271;45.412;10.852;2023-11-19T23:27:13;6.10;1.00
